Independence — WDF3297 — position and weather

sailwx.info

Track history (hours):
 
Tides and Currents Weather Stations Pressure Air Temp Water Temp Dewpoint Dewpoint Depression Visibility Wind Speed Wind Dir Waves Ship Positions

Independence

Owner: American Cruise Lines Inc., Delmar, DE. More information available from US FCC via Universal Licensing System and Coast Guard Vessel Documentation Center.

Last reported at 2016-May-21 18:30 UTC. Time now 2016-May-26 14:32 UTC.
Position N 41°39' W 071°19'.

Length 65 m; draft 2.5 m.

Type: Passenger vessel. MMSI: 367438210.

Date/timePositionNaut miles runAvg speedWind from/ knotsBaromVisibWave heightAir tempDewpointWater temp
2016-May-21 18:30N 41°39' W 071°19'6 0.3
2016-May-20 22:29N 41°45' W 071°22'8 1.1
2016-May-20 15:05N 41°38' W 071°16'  
2016-May-15 18:09N 41°38' W 071°16'6 9.3
2016-May-15 17:32N 41°43' W 071°20'5 0.3
2016-May-15 01:33N 41°48' W 071°23'154 9.4
2016-May-14 09:12N 39°56' W 073°42'710.1
2016-May-14 08:32N 39°52' W 073°50'1010.0
2016-May-14 07:32N 39°45' W 073°59'1010.2
2016-May-14 06:33N 39°37' W 074°06'1010.2
2016-May-14 05:33N 39°28' W 074°13'1010.2
2016-May-14 04:33N 39°19' W 074°20'1010.2
2016-May-14 03:33N 39°12' W 074°29'14 9.8
2016-May-14 02:09N 39°01' W 074°40'610.1
2016-May-14 01:31N 38°56' W 074°45'22 7.6
2016-May-13 22:33N 39°05' W 075°11'1111.2
2016-May-13 21:33N 39°14' W 075°19'10 9.8
2016-May-13 20:33N 39°22' W 075°27'9 8.9
2016-May-13 19:33N 39°29' W 075°34'6 6.0
2016-May-13 18:33N 39°33' W 075°40'1111.2
2016-May-13 17:33N 39°31' W 075°54'1211.8
2016-May-13 16:33N 39°23' W 076°06'23 7.8
2016-May-13 13:33N 39°16' W 076°34'2 2.1
2016-May-13 12:32N 39°17' W 076°37'0 0.0
2016-May-13 11:32N 39°17' W 076°37'0 0.0
2016-May-13 10:32N 39°17' W 076°37'0 0.0
2016-May-13 09:05N 39°17' W 076°37'0 0.0
2016-May-13 08:32N 39°17' W 076°37'0 0.0
2016-May-13 07:32N 39°17' W 076°37'0 0.0
2016-May-13 06:32N 39°17' W 076°37'0 0.0
2016-May-13 05:32N 39°17' W 076°37'0 0.0
2016-May-13 04:32N 39°17' W 076°37'0 0.0
2016-May-13 03:32N 39°17' W 076°37'0 0.0
2016-May-13 02:32N 39°17' W 076°37'0 0.0
2016-May-13 01:32N 39°17' W 076°37'0 0.0
2016-May-13 00:32N 39°17' W 076°37'0 0.0
2016-May-12 23:33N 39°17' W 076°37'7 6.9
2016-May-12 22:33N 39°12' W 076°31'11 9.2
2016-May-12 21:19N 39°02' W 076°23'5 0.6
2016-May-12 12:33N 38°59' W 076°28'  
Track history (hours):
 
Tides and Currents Weather Stations Pressure Air Temp Water Temp Dewpoint Dewpoint Depression Visibility Wind Speed Wind Dir Waves Ship Positions

Independence

Owner: American Cruise Lines Inc., Delmar, DE. More information available from US FCC via Universal Licensing System and Coast Guard Vessel Documentation Center.

Last reported at 2016-May-21 18:30 UTC. Time now 2016-May-26 14:32 UTC.
Position N 41°39' W 071°19'.

Length 65 m; draft 2.5 m.

Type: Passenger vessel. MMSI: 367438210.

Date/timePositionNaut miles runAvg speedWind from/ knotsBaromVisibWave heightAir tempDewpointWater temp
2016-May-21 18:30N 41°39' W 071°19'6 0.3
2016-May-20 22:29N 41°45' W 071°22'8 1.1
2016-May-20 15:05N 41°38' W 071°16'  
2016-May-15 18:09N 41°38' W 071°16'6 9.3
2016-May-15 17:32N 41°43' W 071°20'5 0.3
2016-May-15 01:33N 41°48' W 071°23'154 9.4
2016-May-14 09:12N 39°56' W 073°42'710.1
2016-May-14 08:32N 39°52' W 073°50'1010.0
2016-May-14 07:32N 39°45' W 073°59'1010.2
2016-May-14 06:33N 39°37' W 074°06'1010.2
2016-May-14 05:33N 39°28' W 074°13'1010.2
2016-May-14 04:33N 39°19' W 074°20'1010.2
2016-May-14 03:33N 39°12' W 074°29'14 9.8
2016-May-14 02:09N 39°01' W 074°40'610.1
2016-May-14 01:31N 38°56' W 074°45'22 7.6
2016-May-13 22:33N 39°05' W 075°11'1111.2
2016-May-13 21:33N 39°14' W 075°19'10 9.8
2016-May-13 20:33N 39°22' W 075°27'9 8.9
2016-May-13 19:33N 39°29' W 075°34'6 6.0
2016-May-13 18:33N 39°33' W 075°40'1111.2
2016-May-13 17:33N 39°31' W 075°54'1211.8
2016-May-13 16:33N 39°23' W 076°06'23 7.8
2016-May-13 13:33N 39°16' W 076°34'2 2.1
2016-May-13 12:32N 39°17' W 076°37'0 0.0
2016-May-13 11:32N 39°17' W 076°37'0 0.0
2016-May-13 10:32N 39°17' W 076°37'0 0.0
2016-May-13 09:05N 39°17' W 076°37'0 0.0
2016-May-13 08:32N 39°17' W 076°37'0 0.0
2016-May-13 07:32N 39°17' W 076°37'0 0.0
2016-May-13 06:32N 39°17' W 076°37'0 0.0
2016-May-13 05:32N 39°17' W 076°37'0 0.0
2016-May-13 04:32N 39°17' W 076°37'0 0.0
2016-May-13 03:32N 39°17' W 076°37'0 0.0
2016-May-13 02:32N 39°17' W 076°37'0 0.0
2016-May-13 01:32N 39°17' W 076°37'0 0.0
2016-May-13 00:32N 39°17' W 076°37'0 0.0
2016-May-12 23:33N 39°17' W 076°37'7 6.9
2016-May-12 22:33N 39°12' W 076°31'11 9.2
2016-May-12 21:19N 39°02' W 076°23'5 0.6
2016-May-12 12:33N 38°59' W 076°28'  

Dump ship's entire track history